createdAt,value
2018-06-18T00:00:25.193Z,15.5
2018-06-18T00:01:25.063Z,15.5
2018-06-18T00:02:24.924Z,15.5
2018-06-18T00:03:25.028Z,15.4
2018-06-18T00:04:24.912Z,15.5
2018-06-18T00:05:24.791Z,15.4
2018-06-18T00:06:25.083Z,15.4
2018-06-18T00:07:24.944Z,15.3
2018-06-18T00:08:25.829Z,15.4
2018-06-18T00:09:25.694Z,15.3
2018-06-18T00:10:29.179Z,15.4
2018-06-18T00:11:30.064Z,15.5
2018-06-18T00:12:30.146Z,15.5
2018-06-18T00:13:30.005Z,15.4
2018-06-18T00:14:29.890Z,15.4
2018-06-18T00:15:29.757Z,15.4
2018-06-18T00:16:30.269Z,15.4
2018-06-18T00:17:30.151Z,15.4
2018-06-18T00:18:30.034Z,15.4
2018-06-18T00:19:32.683Z,15.4
2018-06-18T00:20:32.553Z,15.5
2018-06-18T00:21:32.430Z,15.5
2018-06-18T00:22:33.298Z,15.5
2018-06-18T00:23:33.395Z,15.5
2018-06-18T00:24:33.293Z,15.6
2018-06-18T00:25:33.161Z,15.6
2018-06-18T00:26:36.032Z,15.6
2018-06-18T00:27:35.920Z,15.6
2018-06-18T00:28:35.782Z,15.6
2018-06-18T00:29:35.867Z,15.6
2018-06-18T00:30:38.927Z,15.6
2018-06-18T00:31:38.803Z,15.7
2018-06-18T00:32:38.692Z,15.7
2018-06-18T00:33:38.550Z,15.7
2018-06-18T00:34:41.209Z,15.7
2018-06-18T00:35:41.092Z,15.6
2018-06-18T00:36:41.611Z,15.6
2018-06-18T00:37:41.469Z,15.5
2018-06-18T00:38:43.905Z,15.5
2018-06-18T00:39:43.780Z,15.5
2018-06-18T00:40:43.666Z,15.5
2018-06-18T00:41:43.548Z,15.5
2018-06-18T00:42:43.421Z,15.5
2018-06-18T00:43:43.282Z,15.5
2018-06-18T00:44:43.137Z,15.6
2018-06-18T00:45:42.995Z,15.6
2018-06-18T00:46:43.272Z,15.6
2018-06-18T00:47:45.728Z,15.6
2018-06-18T00:48:46.598Z,15.5
2018-06-18T00:49:46.468Z,15.5
2018-06-18T00:50:46.342Z,15.5
2018-06-18T00:51:46.222Z,15.5
2018-06-18T00:52:46.108Z,15.5
2018-06-18T00:53:45.993Z,15.5
2018-06-18T00:54:46.077Z,15.5
2018-06-18T00:55:45.951Z,15.5
2018-06-18T00:56:46.249Z,15.5
2018-06-18T00:57:46.190Z,15.4
2018-06-18T00:58:47.280Z,15.3
2018-06-18T00:59:47.148Z,15.4
2018-06-18T01:00:47.008Z,15.4
2018-06-18T01:01:46.906Z,15.4
2018-06-18T01:02:46.788Z,15.5
2018-06-18T01:03:46.911Z,15.6
2018-06-18T01:04:46.781Z,15.6
2018-06-18T01:05:46.643Z,15.6
2018-06-18T01:06:46.941Z,15.7
2018-06-18T01:07:47.026Z,15.7
2018-06-18T01:08:46.886Z,15.7
2018-06-18T01:09:46.748Z,15.6
2018-06-18T01:10:46.613Z,15.6
2018-06-18T01:11:46.512Z,15.5
2018-06-18T01:12:46.388Z,15.5
2018-06-18T01:13:46.248Z,15.5
2018-06-18T01:14:46.117Z,15.5
2018-06-18T01:15:45.987Z,15.5
2018-06-18T01:16:46.305Z,15.5
2018-06-18T01:17:49.071Z,15.5
2018-06-18T01:18:49.161Z,15.5
2018-06-18T01:19:49.033Z,15.4
2018-06-18T01:20:48.906Z,15.4
2018-06-18T01:21:48.788Z,15.4
2018-06-18T01:22:48.657Z,15.4
2018-06-18T01:23:48.541Z,15.3
2018-06-18T01:24:48.460Z,15.2
2018-06-18T01:25:48.310Z,15.2
2018-06-18T01:26:49.121Z,15.2
2018-06-18T01:27:48.987Z,15.2
2018-06-18T01:28:49.130Z,15.2
2018-06-18T01:29:49.020Z,15.2
2018-06-18T01:30:48.888Z,15.2
2018-06-18T01:31:48.769Z,15.2
2018-06-18T01:32:48.854Z,15.2
2018-06-18T01:33:48.700Z,15.2
2018-06-18T01:34:48.542Z,15.2
2018-06-18T01:35:48.403Z,15.2
2018-06-18T01:36:48.698Z,15.2
2018-06-18T01:37:51.567Z,15.2
2018-06-18T01:38:51.646Z,15.2
2018-06-18T01:39:51.505Z,15.2
2018-06-18T01:40:54.122Z,15.2
2018-06-18T01:41:54.011Z,15.2
2018-06-18T01:42:53.879Z,15.2
2018-06-18T01:43:53.758Z,15.1
2018-06-18T01:44:53.634Z,15.1
2018-06-18T01:45:53.488Z,15.2
2018-06-18T01:46:53.791Z,15.1
2018-06-18T01:47:53.725Z,15.1
2018-06-18T01:48:53.610Z,15
2018-06-18T01:49:53.475Z,15
2018-06-18T01:50:53.560Z,15
2018-06-18T01:51:56.153Z,15
2018-06-18T01:52:56.019Z,15
2018-06-18T01:53:55.892Z,15
2018-06-18T01:54:55.759Z,15
2018-06-18T01:55:55.643Z,15
2018-06-18T01:56:56.140Z,15
2018-06-18T01:57:55.994Z,15
2018-06-18T01:58:55.871Z,15
2018-06-18T01:59:55.958Z,15
2018-06-18T02:00:55.838Z,15
2018-06-18T02:01:55.715Z,15
2018-06-18T02:02:55.790Z,14.9
2018-06-18T02:03:55.654Z,14.9
2018-06-18T02:04:55.519Z,14.9
2018-06-18T02:05:55.391Z,15
2018-06-18T02:06:55.713Z,15
2018-06-18T02:07:55.824Z,15
2018-06-18T02:08:55.690Z,15.1
2018-06-18T02:09:55.548Z,15
2018-06-18T02:10:55.399Z,15
2018-06-18T02:11:55.267Z,15.1
2018-06-18T02:12:55.140Z,15.1
2018-06-18T02:13:55.222Z,15.1
2018-06-18T02:14:55.076Z,15.1
2018-06-18T02:15:54.938Z,15.2
2018-06-18T02:16:56.221Z,15.1
2018-06-18T02:17:56.324Z,15.2
2018-06-18T02:18:56.203Z,15.2
2018-06-18T02:19:56.068Z,15.2
2018-06-18T02:20:56.178Z,15.2
2018-06-18T02:21:56.072Z,15.1
2018-06-18T02:22:55.941Z,15.1
2018-06-18T02:23:55.812Z,15.1
2018-06-18T02:24:59.616Z,15.1
2018-06-18T02:25:59.474Z,15.1
2018-06-18T02:26:59.737Z,15.1
2018-06-18T02:28:00.590Z,15.1
2018-06-18T02:29:00.441Z,15.1
2018-06-18T02:30:00.305Z,15.1
2018-06-18T02:31:00.435Z,15.2
2018-06-18T02:32:00.334Z,15.2
2018-06-18T02:33:00.215Z,15.3
2018-06-18T02:34:01.099Z,15.3
2018-06-18T02:35:03.567Z,15.3
2018-06-18T02:36:03.457Z,15.3
2018-06-18T02:37:03.770Z,15.3
2018-06-18T02:38:03.621Z,15.4
2018-06-18T02:39:05.475Z,15.4
2018-06-18T02:40:05.344Z,15.4
2018-06-18T02:41:05.215Z,15.4
2018-06-18T02:42:05.118Z,15.4
2018-06-18T02:43:05.226Z,15.3
2018-06-18T02:44:05.108Z,15.3
2018-06-18T02:45:04.967Z,15.3
2018-06-18T02:46:04.852Z,15.2
2018-06-18T02:47:10.858Z,15.2
2018-06-18T02:48:10.733Z,15.1
2018-06-18T02:49:10.610Z,15.1
2018-06-18T02:50:10.491Z,15
2018-06-18T02:51:10.399Z,15
2018-06-18T02:52:10.491Z,15
2018-06-18T02:53:10.392Z,15
2018-06-18T02:54:10.252Z,14.9
2018-06-18T02:55:10.135Z,14.9
2018-06-18T02:56:10.018Z,14.9
2018-06-18T02:57:13.313Z,14.8
2018-06-18T02:58:13.251Z,14.8
2018-06-18T02:59:13.119Z,14.9
2018-06-18T03:00:12.991Z,14.9
2018-06-18T03:01:12.882Z,14.9
2018-06-18T03:02:12.748Z,14.9
2018-06-18T03:03:12.641Z,14.8
2018-06-18T03:04:15.642Z,14.9
2018-06-18T03:05:19.131Z,14.9
2018-06-18T03:06:19.000Z,14.9
2018-06-18T03:07:19.355Z,14.9
2018-06-18T03:08:19.260Z,14.8
2018-06-18T03:09:22.097Z,14.8
2018-06-18T03:10:22.003Z,14.8
2018-06-18T03:11:21.887Z,14.8
2018-06-18T03:12:21.771Z,14.9
2018-06-18T03:13:21.886Z,15
2018-06-18T03:14:21.784Z,15
2018-06-18T03:15:21.652Z,15
2018-06-18T03:16:21.524Z,15
2018-06-18T03:17:21.802Z,15
2018-06-18T03:18:21.696Z,15.1
2018-06-18T03:19:21.605Z,15.1
2018-06-18T03:20:21.470Z,15
2018-06-18T03:21:24.707Z,15
2018-06-18T03:22:24.570Z,15.1
2018-06-18T03:23:24.515Z,15
2018-06-18T03:24:24.393Z,15.1
2018-06-18T03:25:24.273Z,15.1
2018-06-18T03:26:24.139Z,15.1
2018-06-18T03:27:24.451Z,15.1
2018-06-18T03:28:24.546Z,15.1
2018-06-18T03:29:24.412Z,15
2018-06-18T03:30:24.289Z,14.9
2018-06-18T03:31:24.414Z,15
2018-06-18T03:32:24.282Z,15
2018-06-18T03:33:24.152Z,15
2018-06-18T03:34:24.019Z,15
2018-06-18T03:35:23.884Z,15
2018-06-18T03:36:23.752Z,15
2018-06-18T03:37:26.780Z,15
2018-06-18T03:38:26.698Z,15.1
2018-06-18T03:39:26.556Z,15
2018-06-18T03:40:26.454Z,15
2018-06-18T03:41:26.531Z,15
2018-06-18T03:42:26.388Z,15
2018-06-18T03:43:26.260Z,15
2018-06-18T03:44:26.144Z,15.1
2018-06-18T03:45:26.245Z,15.1
2018-06-18T03:46:26.116Z,15.1
2018-06-18T03:47:26.387Z,15.1
2018-06-18T03:48:26.253Z,15.1
2018-06-18T03:49:26.146Z,15.1
2018-06-18T03:50:26.027Z,15.1
2018-06-18T03:51:25.902Z,15.1
2018-06-18T03:52:25.767Z,15.1
2018-06-18T03:53:25.635Z,15.1
2018-06-18T03:54:25.538Z,15.1
2018-06-18T03:55:25.418Z,15.1
2018-06-18T03:56:25.295Z,15.1
2018-06-18T03:57:25.800Z,15.2
2018-06-18T03:58:25.687Z,15.2
2018-06-18T03:59:25.582Z,15.1
2018-06-18T04:00:25.678Z,15.1
2018-06-18T04:01:25.541Z,15.1
2018-06-18T04:02:25.395Z,15.2
2018-06-18T04:03:25.266Z,15.2
2018-06-18T04:04:25.138Z,15.3
2018-06-18T04:05:25.103Z,15.3
2018-06-18T04:06:25.109Z,15.4
2018-06-18T04:07:25.378Z,15.4
2018-06-18T04:08:25.237Z,15.4
2018-06-18T04:09:25.135Z,15.4
2018-06-18T04:10:25.018Z,15.4
2018-06-18T04:11:25.098Z,15.5
2018-06-18T04:12:24.988Z,15.5
2018-06-18T04:13:24.874Z,15.5
2018-06-18T04:14:24.759Z,15.5
2018-06-18T04:15:24.685Z,15.5
2018-06-18T04:16:24.559Z,15.5
2018-06-18T04:17:24.860Z,15.5
2018-06-18T04:18:24.729Z,15.5
2018-06-18T04:19:24.764Z,15.5
2018-06-18T04:20:24.963Z,15.5
2018-06-18T04:21:24.838Z,15.5
2018-06-18T04:22:24.699Z,15.5
2018-06-18T04:23:24.571Z,15.4
2018-06-18T04:24:24.437Z,15.5
2018-06-18T04:25:24.339Z,15.4
2018-06-18T04:26:24.202Z,15.5
2018-06-18T04:27:24.522Z,15.5
2018-06-18T04:28:24.403Z,15.5
2018-06-18T04:29:24.287Z,15.4
2018-06-18T04:30:24.176Z,15.5
2018-06-18T04:31:24.048Z,15.5
2018-06-18T04:32:23.924Z,15.4
2018-06-18T04:33:23.800Z,15.5
2018-06-18T04:34:23.689Z,15.4
2018-06-18T04:35:24.571Z,15.5
2018-06-18T04:36:24.439Z,15.4
2018-06-18T04:37:24.721Z,15.4
2018-06-18T04:38:24.601Z,15.4
2018-06-18T04:39:24.482Z,15.4
2018-06-18T04:40:24.386Z,15.4
2018-06-18T04:41:24.256Z,15.4
2018-06-18T04:42:24.119Z,15.4
2018-06-18T04:43:23.997Z,15.5
2018-06-18T04:44:23.882Z,15.5
2018-06-18T04:45:23.770Z,15.4
2018-06-18T04:46:23.639Z,15.4
2018-06-18T04:47:24.151Z,15.4
2018-06-18T04:48:24.025Z,15.4
2018-06-18T04:49:24.139Z,15.3
2018-06-18T04:50:24.078Z,15.3
2018-06-18T04:51:26.705Z,15.2
2018-06-18T04:52:26.562Z,15.2
2018-06-18T04:53:26.429Z,15.2
2018-06-18T04:54:26.297Z,15.2
2018-06-18T04:55:26.162Z,15.1
2018-06-18T04:56:26.283Z,15.1
2018-06-18T04:57:26.961Z,15.1
2018-06-18T04:58:26.886Z,15.2
2018-06-18T04:59:26.750Z,15.2
2018-06-18T05:00:26.673Z,15.3
2018-06-18T05:01:26.547Z,15.3
2018-06-18T05:02:26.429Z,15.3
2018-06-18T05:03:26.539Z,15.4
2018-06-18T05:04:26.423Z,15.5
2018-06-18T05:05:26.309Z,15.5
2018-06-18T05:06:26.185Z,15.4
2018-06-18T05:07:26.566Z,15.4
2018-06-18T05:08:26.524Z,15.4
2018-06-18T05:09:26.412Z,15.4
2018-06-18T05:10:26.277Z,15.5
2018-06-18T05:11:26.176Z,15.5
2018-06-18T05:12:26.065Z,15.4
2018-06-18T05:13:25.948Z,15.5
2018-06-18T05:14:25.840Z,15.5
2018-06-18T05:15:25.755Z,15.3
2018-06-18T05:16:25.634Z,15.4
2018-06-18T05:17:25.917Z,15.4
2018-06-18T05:18:25.802Z,15.4
2018-06-18T05:19:25.677Z,15.3
2018-06-18T05:20:25.719Z,15.3
2018-06-18T05:21:25.774Z,15.4
2018-06-18T05:22:25.631Z,15.4
2018-06-18T05:23:25.515Z,15.4
2018-06-18T05:24:25.382Z,15.4
2018-06-18T05:25:25.264Z,15.4
2018-06-18T05:26:25.241Z,15.4
2018-06-18T05:27:25.811Z,15.4
2018-06-18T05:28:25.691Z,15.3
2018-06-18T05:29:25.575Z,15.4
2018-06-18T05:30:25.469Z,15.4
2018-06-18T05:31:25.363Z,15.4
2018-06-18T05:32:25.289Z,15.4
2018-06-18T05:33:25.166Z,15.4
2018-06-18T05:34:25.066Z,15.4
2018-06-18T05:35:25.030Z,15.3
2018-06-18T05:36:25.305Z,15.3
2018-06-18T05:37:25.863Z,15.3
2018-06-18T05:38:25.735Z,15.3
2018-06-18T05:39:25.590Z,15.3
2018-06-18T05:40:25.477Z,15.3
2018-06-18T05:41:25.349Z,15.3
2018-06-18T05:42:25.224Z,15.4
2018-06-18T05:43:25.322Z,15.4
2018-06-18T05:44:25.396Z,15.4
2018-06-18T05:45:25.275Z,15.5
2018-06-18T05:46:25.154Z,15.6
2018-06-18T05:47:25.459Z,15.6
2018-06-18T05:48:25.590Z,15.7
2018-06-18T05:49:25.461Z,15.7
2018-06-18T05:50:25.460Z,15.7
2018-06-18T05:51:25.733Z,15.7
2018-06-18T05:52:25.640Z,15.8
2018-06-18T05:53:25.515Z,15.8
2018-06-18T05:54:25.432Z,15.8
2018-06-18T05:55:25.528Z,15.8
2018-06-18T05:56:25.428Z,15.8
2018-06-18T05:57:25.725Z,15.8
2018-06-18T05:58:25.784Z,15.9
2018-06-18T05:59:25.842Z,15.9
2018-06-18T06:00:25.777Z,15.9
2018-06-18T06:01:25.671Z,15.9
2018-06-18T06:02:25.561Z,15.9
2018-06-18T06:03:25.438Z,15.9
2018-06-18T06:04:25.340Z,16
2018-06-18T06:05:25.209Z,15.9
2018-06-18T06:06:25.086Z,16
2018-06-18T06:07:25.396Z,15.9
2018-06-18T06:08:25.274Z,15.9
2018-06-18T06:09:25.165Z,15.9
2018-06-18T06:10:25.050Z,15.9
2018-06-18T06:11:24.909Z,15.9
2018-06-18T06:12:24.770Z,15.9
2018-06-18T06:13:24.661Z,15.8
2018-06-18T06:14:24.545Z,15.8
2018-06-18T06:15:24.458Z,15.8
2018-06-18T06:16:24.344Z,15.8
2018-06-18T06:17:25.208Z,15.7
2018-06-18T06:18:25.151Z,15.7
2018-06-18T06:19:25.043Z,15.7
2018-06-18T06:20:24.925Z,15.7
2018-06-18T06:21:25.032Z,15.7
2018-06-18T06:22:25.037Z,15.7
2018-06-18T06:23:25.126Z,15.7
2018-06-18T06:24:28.907Z,15.7
2018-06-18T06:25:28.823Z,15.7
2018-06-18T06:26:28.705Z,15.7
2018-06-18T06:27:29.044Z,15.7
2018-06-18T06:28:28.916Z,15.7
2018-06-18T06:29:28.947Z,15.7
2018-06-18T06:30:28.870Z,15.6
2018-06-18T06:31:28.718Z,15.6
2018-06-18T06:32:28.599Z,15.6
2018-06-18T06:33:28.481Z,15.7
2018-06-18T06:34:28.411Z,15.7
2018-06-18T06:35:28.285Z,15.7
2018-06-18T06:36:28.166Z,15.8
2018-06-18T06:37:28.552Z,15.8
2018-06-18T06:38:28.805Z,15.8
2018-06-18T06:39:28.701Z,15.8
2018-06-18T06:40:28.558Z,15.8
2018-06-18T06:41:28.440Z,15.8
2018-06-18T06:42:29.335Z,15.9
2018-06-18T06:43:29.223Z,15.9
2018-06-18T06:44:29.125Z,16
2018-06-18T06:45:29.211Z,16
2018-06-18T06:46:29.072Z,15.9
2018-06-18T06:47:29.440Z,15.9
2018-06-18T06:48:29.558Z,16
2018-06-18T06:49:29.461Z,16.1
2018-06-18T06:50:29.325Z,16.2
2018-06-18T06:51:29.203Z,16.2
2018-06-18T06:52:29.302Z,16.3
2018-06-18T06:53:29.168Z,16.4
2018-06-18T06:54:29.070Z,16.5
2018-06-18T06:55:28.931Z,16.5
2018-06-18T06:56:28.805Z,16.6
2018-06-18T06:57:29.250Z,16.7
2018-06-18T06:58:29.109Z,16.9
2018-06-18T06:59:29.071Z,17.2
2018-06-18T07:00:28.961Z,17.3
2018-06-18T07:01:28.841Z,17.3
2018-06-18T07:02:28.719Z,17.4
2018-06-18T07:03:28.797Z,17.4
2018-06-18T07:04:28.684Z,17.3
2018-06-18T07:05:28.577Z,17.4
2018-06-18T07:06:28.460Z,17.4
2018-06-18T07:07:28.761Z,17.2
2018-06-18T07:08:28.886Z,16.8
2018-06-18T07:09:28.776Z,16.4
2018-06-18T07:10:28.645Z,16.4
2018-06-18T07:11:28.537Z,16.5
2018-06-18T07:12:29.411Z,16.6
2018-06-18T07:13:29.725Z,16.8
2018-06-18T07:14:30.219Z,16.9
2018-06-18T07:15:30.110Z,17
2018-06-18T07:16:29.980Z,17
2018-06-18T07:17:30.507Z,17
2018-06-18T07:18:30.380Z,16.9
2018-06-18T07:19:30.306Z,16.9
2018-06-18T07:20:30.214Z,17
2018-06-18T07:21:30.111Z,17
2018-06-18T07:22:32.712Z,17
2018-06-18T07:23:32.868Z,17
2018-06-18T07:24:32.746Z,17
2018-06-18T07:25:32.626Z,17.1
2018-06-18T07:26:33.502Z,17.1
2018-06-18T07:27:33.931Z,17
2018-06-18T07:28:33.842Z,17.1
2018-06-18T07:29:33.813Z,17.1
2018-06-18T07:30:34.373Z,17.2
2018-06-18T07:31:35.483Z,17.2
2018-06-18T07:32:35.584Z,17.2
2018-06-18T07:33:35.455Z,17.2
2018-06-18T07:34:35.358Z,17.3
2018-06-18T07:35:35.241Z,17.4
2018-06-18T07:36:35.121Z,17.4
2018-06-18T07:37:35.412Z,17.2
2018-06-18T07:38:35.596Z,17.1
2018-06-18T07:39:35.763Z,17.3
2018-06-18T07:40:35.622Z,17.4
2018-06-18T07:41:35.506Z,17.5
2018-06-18T07:42:35.613Z,17.6
2018-06-18T07:43:35.496Z,17.6
2018-06-18T07:44:35.376Z,17.6
2018-06-18T07:45:35.409Z,17.6
2018-06-18T07:46:35.453Z,17.7
2018-06-18T07:47:35.759Z,17.8
2018-06-18T07:48:35.661Z,17.7
2018-06-18T07:49:35.560Z,17.7
2018-06-18T07:50:35.444Z,17.8
2018-06-18T07:51:35.620Z,17.9
2018-06-18T07:52:35.917Z,17.9
2018-06-18T07:53:35.804Z,17.9
2018-06-18T07:54:35.685Z,18
2018-06-18T07:55:35.767Z,18
2018-06-18T07:56:35.656Z,18.1
2018-06-18T07:57:36.195Z,17.9
2018-06-18T07:58:36.324Z,17.8
2018-06-18T07:59:36.214Z,17.9
2018-06-18T08:00:36.099Z,18
2018-06-18T08:01:35.959Z,18.1
2018-06-18T08:02:35.838Z,18.1
2018-06-18T08:03:35.810Z,18.3
2018-06-18T08:04:40.130Z,18.3
2018-06-18T08:05:39.995Z,18.3
2018-06-18T08:06:39.890Z,18.4
2018-06-18T08:07:43.126Z,18.5
2018-06-18T08:08:43.000Z,18.3
2018-06-18T08:09:43.127Z,18.6
2018-06-18T08:10:43.604Z,18.4
2018-06-18T08:11:43.486Z,18.3
2018-06-18T08:12:43.370Z,18.7
2018-06-18T08:13:43.260Z,18.7
2018-06-18T08:14:43.165Z,18.3
2018-06-18T08:15:43.056Z,18.7
2018-06-18T08:16:42.958Z,19
2018-06-18T08:17:43.457Z,19.3
2018-06-18T08:18:46.423Z,19.3
2018-06-18T08:19:46.337Z,19.4
2018-06-18T08:20:46.238Z,19.3
2018-06-18T08:21:46.123Z,19.5
2018-06-18T08:22:46.007Z,19.7
2018-06-18T08:23:46.989Z,20
2018-06-18T08:24:47.102Z,20.2
2018-06-18T08:25:46.978Z,20.4
2018-06-18T08:26:46.867Z,20.3
2018-06-18T08:27:48.238Z,20.4
2018-06-18T08:28:48.150Z,20.3
2018-06-18T08:29:48.286Z,20.3
2018-06-18T08:30:48.186Z,20.3
2018-06-18T08:31:48.069Z,20.2
2018-06-18T08:32:48.943Z,20.2
2018-06-18T08:33:48.812Z,20.2
2018-06-18T08:34:48.880Z,20.4
2018-06-18T08:35:48.888Z,20.2
2018-06-18T08:36:48.993Z,20.2
2018-06-18T08:37:49.293Z,20.4
2018-06-18T08:38:50.181Z,20.5
2018-06-18T08:39:50.081Z,20.5
2018-06-18T08:40:49.963Z,20.4
2018-06-18T08:41:49.839Z,20.4
2018-06-18T08:42:49.715Z,20.3
2018-06-18T08:43:49.602Z,20.5
2018-06-18T08:44:49.462Z,20.5
2018-06-18T08:45:49.360Z,20.6
2018-06-18T08:46:49.459Z,20.8
2018-06-18T08:47:49.802Z,20.9
2018-06-18T08:48:49.691Z,20.9
2018-06-18T08:49:49.572Z,20.8
2018-06-18T08:50:49.459Z,20.7
2018-06-18T08:51:49.343Z,20.5
2018-06-18T08:52:49.212Z,20.2
2018-06-18T08:53:49.090Z,20.4
2018-06-18T08:54:49.000Z,20.5
2018-06-18T08:55:51.693Z,20.8
2018-06-18T08:56:51.554Z,20.8
2018-06-18T08:57:51.961Z,20.8
2018-06-18T08:58:52.671Z,20.9
2018-06-18T08:59:52.533Z,20.9
2018-06-18T09:00:52.425Z,20.9
2018-06-18T09:01:53.306Z,21
2018-06-18T09:02:53.175Z,20.9
2018-06-18T09:03:53.061Z,20.8
2018-06-18T09:04:55.680Z,20.9
2018-06-18T09:05:55.601Z,20.9
2018-06-18T09:06:55.482Z,20.9
2018-06-18T09:07:55.753Z,20.9
2018-06-18T09:08:56.642Z,20.9
2018-06-18T09:09:56.517Z,20.8
2018-06-18T09:10:56.398Z,20.8
2018-06-18T09:11:56.298Z,20.8
2018-06-18T09:12:56.163Z,20.9
2018-06-18T09:13:56.044Z,21
2018-06-18T09:14:55.926Z,20.9
2018-06-18T09:15:55.878Z,20.7
2018-06-18T09:16:55.779Z,20.8
2018-06-18T09:17:56.315Z,20.6
2018-06-18T09:18:56.178Z,20.6
2018-06-18T09:19:56.049Z,20.6
2018-06-18T09:20:55.911Z,20.8
2018-06-18T09:21:56.020Z,20.9
2018-06-18T09:22:55.889Z,21
2018-06-18T09:23:55.769Z,21.2
2018-06-18T09:24:55.639Z,21
2018-06-18T09:25:55.570Z,21
2018-06-18T09:26:55.477Z,20.8
2018-06-18T09:27:55.785Z,20.8
2018-06-18T09:28:55.655Z,20.9
2018-06-18T09:29:55.538Z,20.9
2018-06-18T09:30:55.403Z,20.9
2018-06-18T09:31:55.419Z,21.1
2018-06-18T09:32:55.508Z,21
2018-06-18T09:33:55.395Z,20.9
2018-06-18T09:34:55.263Z,20.9
2018-06-18T09:35:55.123Z,20.9
2018-06-18T09:36:55.010Z,21.1
2018-06-18T09:37:55.312Z,21.1
2018-06-18T09:38:57.795Z,21.1
2018-06-18T09:39:57.880Z,21.1
2018-06-18T09:40:57.763Z,21.1
2018-06-18T09:41:57.643Z,21.1
2018-06-18T09:42:57.514Z,21.2
2018-06-18T09:43:58.408Z,21.2
2018-06-18T09:44:58.299Z,21.2
2018-06-18T09:45:58.171Z,21.4
2018-06-18T09:46:58.106Z,21.5
2018-06-18T09:47:58.697Z,21.4
2018-06-18T09:48:58.668Z,21.2
2018-06-18T09:50:01.345Z,21.1
2018-06-18T09:51:01.238Z,21.2
2018-06-18T09:52:01.137Z,21.3
2018-06-18T09:53:01.993Z,21.4
2018-06-18T09:54:02.845Z,21.4
2018-06-18T09:55:02.727Z,21.5
2018-06-18T09:56:02.614Z,21.5
2018-06-18T09:57:05.244Z,21.5
2018-06-18T09:58:05.590Z,21.6
2018-06-18T09:59:08.268Z,21.6
2018-06-18T10:00:08.137Z,21.7
2018-06-18T10:01:08.004Z,21.8
2018-06-18T10:02:07.896Z,21.6
2018-06-18T10:03:08.006Z,21.6
2018-06-18T10:04:07.873Z,21.6
2018-06-18T10:05:07.758Z,21.7
2018-06-18T10:06:07.633Z,21.9
2018-06-18T10:07:07.541Z,21.7
2018-06-18T10:08:07.955Z,21.6
2018-06-18T10:09:07.904Z,21.6
2018-06-18T10:10:07.992Z,21.7
2018-06-18T10:11:07.869Z,21.8
2018-06-18T10:12:07.762Z,21.3
2018-06-18T10:13:07.624Z,21.3
2018-06-18T10:14:07.528Z,21.1
2018-06-18T10:15:07.419Z,21.2
2018-06-18T10:16:07.297Z,21.2
2018-06-18T10:17:07.194Z,21.3
2018-06-18T10:18:07.532Z,21
2018-06-18T10:19:07.420Z,21
2018-06-18T10:20:07.311Z,21.2
2018-06-18T10:21:07.192Z,21.3
2018-06-18T10:22:07.085Z,21.4
2018-06-18T10:23:06.979Z,21.3
2018-06-18T10:24:06.988Z,21.2
2018-06-18T10:25:07.104Z,21.4
2018-06-18T10:26:07.007Z,21.5
2018-06-18T10:27:09.924Z,21.6
2018-06-18T10:28:10.215Z,21.7
2018-06-18T10:29:10.358Z,21.8
2018-06-18T10:30:10.252Z,21.7
2018-06-18T10:31:10.131Z,21.8
2018-06-18T10:32:10.062Z,21.9
2018-06-18T10:33:09.969Z,21.9
2018-06-18T10:34:09.869Z,21.8
2018-06-18T10:35:09.750Z,21.9
2018-06-18T10:36:09.863Z,21.9
2018-06-18T10:37:09.772Z,21.8
2018-06-18T10:38:10.092Z,21.7
2018-06-18T10:39:12.809Z,21.7
2018-06-18T10:40:12.690Z,21.8
2018-06-18T10:41:12.562Z,21.7
2018-06-18T10:42:12.466Z,21.4
2018-06-18T10:43:12.328Z,21.4
2018-06-18T10:44:12.212Z,21.5
2018-06-18T10:45:12.085Z,21.6
2018-06-18T10:46:11.954Z,21.5
2018-06-18T10:47:11.833Z,21.6
2018-06-18T10:48:12.147Z,21.8
2018-06-18T10:49:12.079Z,21.7
2018-06-18T10:50:11.977Z,21.5
2018-06-18T10:51:11.896Z,21.3
2018-06-18T10:52:11.787Z,21.2
2018-06-18T10:53:11.683Z,21.3
2018-06-18T10:54:11.561Z,21.4
2018-06-18T10:55:11.432Z,21.5
2018-06-18T10:56:11.532Z,21.6
2018-06-18T10:57:11.471Z,21.7
2018-06-18T10:58:11.816Z,21.7
2018-06-18T10:59:11.914Z,21.7
2018-06-18T11:00:11.776Z,21.9
2018-06-18T11:01:11.660Z,21.8
2018-06-18T11:02:11.545Z,21.9
2018-06-18T11:03:11.445Z,21.8
2018-06-18T11:04:11.333Z,21.6
2018-06-18T11:05:11.243Z,21.6
2018-06-18T11:06:11.119Z,21.7
2018-06-18T11:07:11.020Z,21.7
2018-06-18T11:08:11.338Z,21.4
2018-06-18T11:09:11.229Z,21.3
2018-06-18T11:10:11.435Z,21.1
2018-06-18T11:11:11.447Z,21.1
2018-06-18T11:12:11.352Z,21.3
2018-06-18T11:13:11.250Z,21.4
2018-06-18T11:14:14.138Z,21.3
2018-06-18T11:15:14.020Z,21.3
2018-06-18T11:16:14.565Z,21.3
2018-06-18T11:17:16.821Z,21.2
2018-06-18T11:18:19.667Z,21.2
2018-06-18T11:19:19.572Z,21.2
2018-06-18T11:20:19.464Z,21.2
2018-06-18T11:21:19.345Z,21.1
2018-06-18T11:22:19.225Z,21
2018-06-18T11:23:19.185Z,21
2018-06-18T11:24:19.075Z,21.2
2018-06-18T11:25:19.269Z,21
2018-06-18T11:26:20.032Z,21
2018-06-18T11:27:20.495Z,21.1
2018-06-18T11:28:21.658Z,20.9
2018-06-18T11:29:21.762Z,20.8
2018-06-18T11:30:21.876Z,21
2018-06-18T11:31:22.008Z,21.3
2018-06-18T11:32:22.667Z,21.4
2018-06-18T11:33:22.861Z,21.5
2018-06-18T11:34:22.780Z,21.5
2018-06-18T11:35:22.653Z,21.5
2018-06-18T11:36:22.545Z,21.5
2018-06-18T11:37:22.639Z,21.5
2018-06-18T11:38:22.961Z,21.5
2018-06-18T11:39:23.090Z,21.7
2018-06-18T11:40:23.583Z,21.6
2018-06-18T11:41:23.491Z,21.6
2018-06-18T11:42:23.695Z,21.6
2018-06-18T11:43:23.624Z,21.6
2018-06-18T11:44:23.573Z,21.5
2018-06-18T11:45:23.449Z,21.7
2018-06-18T11:46:26.059Z,21.7
2018-06-18T11:47:25.940Z,21.7
2018-06-18T11:48:26.427Z,21.8
2018-06-18T11:49:26.563Z,21.6
2018-06-18T11:50:26.713Z,21.6
2018-06-18T11:51:26.606Z,21.7
2018-06-18T11:52:26.481Z,21.7
2018-06-18T11:53:26.428Z,21.8
2018-06-18T11:54:26.341Z,21.9
2018-06-18T11:55:26.240Z,21.6
2018-06-18T11:56:26.117Z,21.5
2018-06-18T11:57:26.226Z,21.5
2018-06-18T11:58:26.908Z,21.7
2018-06-18T11:59:30.041Z,21.7
2018-06-18T12:00:29.929Z,21.7
2018-06-18T12:01:30.296Z,21.5
2018-06-18T12:02:30.535Z,21.2
2018-06-18T12:03:30.423Z,21.3
2018-06-18T12:04:30.356Z,21.3
2018-06-18T12:05:30.246Z,21.3
2018-06-18T12:06:31.152Z,21.4
2018-06-18T12:07:31.035Z,21.2
2018-06-18T12:08:31.326Z,21.3
2018-06-18T12:09:31.343Z,21.4
2018-06-18T12:10:31.706Z,21.4
2018-06-18T12:11:31.585Z,21.5
2018-06-18T12:12:31.469Z,21.4
2018-06-18T12:13:31.582Z,21.4
2018-06-18T12:14:31.472Z,21.4
2018-06-18T12:15:31.357Z,21.5
2018-06-18T12:16:31.239Z,21.3
2018-06-18T12:17:32.142Z,21.3
2018-06-18T12:18:32.439Z,21.3
2018-06-18T12:19:32.321Z,21.3
2018-06-18T12:20:32.443Z,21.4
2018-06-18T12:21:32.332Z,21.6
2018-06-18T12:22:32.221Z,21.6
2018-06-18T12:23:32.142Z,21.6
2018-06-18T12:24:32.010Z,21.6
2018-06-18T12:25:31.912Z,21.7
2018-06-18T12:26:31.815Z,21.7
2018-06-18T12:27:31.691Z,21.7
2018-06-18T12:28:32.081Z,21.5
2018-06-18T12:29:35.782Z,21.5
2018-06-18T12:30:35.687Z,21.4
2018-06-18T12:31:35.575Z,21.4
2018-06-18T12:32:35.463Z,21.5
2018-06-18T12:33:37.951Z,21.5
2018-06-18T12:34:37.826Z,21.5
2018-06-18T12:35:37.722Z,21.4
2018-06-18T12:36:40.339Z,21.5
2018-06-18T12:37:40.234Z,21.4
2018-06-18T12:38:40.528Z,21.3
2018-06-18T12:39:41.418Z,21.5
2018-06-18T12:40:41.314Z,21.6
2018-06-18T12:41:41.182Z,21.7
2018-06-18T12:42:45.255Z,21.7
2018-06-18T12:43:45.132Z,21.8
2018-06-18T12:44:45.023Z,21.9
2018-06-18T12:45:44.945Z,21.9
2018-06-18T12:46:45.232Z,21.8
2018-06-18T12:47:45.703Z,21.6
2018-06-18T12:48:54.971Z,21.6
2018-06-18T12:49:54.841Z,21.5
2018-06-18T12:50:54.748Z,21.4
2018-06-18T12:51:54.642Z,21.4
2018-06-18T12:52:54.511Z,21.3
2018-06-18T12:53:54.385Z,21.3
2018-06-18T12:54:54.488Z,21.2
2018-06-18T12:55:54.392Z,21.3
2018-06-18T12:56:54.263Z,21.3
2018-06-18T12:57:54.134Z,21.4
2018-06-18T12:58:54.449Z,21.5
2018-06-18T12:59:54.592Z,21.5
2018-06-18T13:00:54.942Z,21.5
2018-06-18T13:01:55.073Z,21.5
2018-06-18T13:02:55.181Z,21.5
2018-06-18T13:03:55.308Z,21.5
2018-06-18T13:04:55.426Z,21.5
2018-06-18T13:05:55.583Z,21.5
2018-06-18T13:06:55.722Z,21.6
2018-06-18T13:07:55.870Z,21.5
2018-06-18T13:08:56.635Z,21.4
2018-06-18T13:09:56.771Z,21.4
2018-06-18T13:10:59.931Z,21.4
2018-06-18T13:12:00.065Z,21.4
2018-06-18T13:13:00.210Z,21.4
2018-06-18T13:14:00.564Z,21.5
2018-06-18T13:15:00.702Z,21.6
2018-06-18T13:16:00.852Z,21.7
2018-06-18T13:17:00.993Z,21.7
2018-06-18T13:18:01.361Z,21.7
2018-06-18T13:19:02.111Z,21.7
2018-06-18T13:20:02.260Z,21.7
2018-06-18T13:21:02.425Z,21.8
2018-06-18T13:22:02.565Z,21.8
2018-06-18T13:23:05.431Z,21.9
2018-06-18T13:24:05.569Z,21.9
2018-06-18T13:25:05.675Z,21.9
2018-06-18T13:26:09.450Z,21.9